sensor_id;sensor_type;location;lat;lon;timestamp;P1;durP1;ratioP1;P2;durP2;ratioP2
67904;SDS011;54709;43.614;1.576;2023-04-29T00:00:31;8.00;;;2.40;;
67904;SDS011;54709;43.614;1.576;2023-04-29T00:02:56;2.50;;;2.25;;
67904;SDS011;54709;43.614;1.576;2023-04-29T00:05:22;3.72;;;2.85;;
67904;SDS011;54709;43.614;1.576;2023-04-29T00:07:47;7.28;;;2.70;;
67904;SDS011;54709;43.614;1.576;2023-04-29T00:10:12;5.65;;;2.55;;
67904;SDS011;54709;43.614;1.576;2023-04-29T00:12:41;7.85;;;2.50;;
67904;SDS011;54709;43.614;1.576;2023-04-29T00:15:06;5.07;;;2.80;;
67904;SDS011;54709;43.614;1.576;2023-04-29T00:17:33;5.57;;;2.97;;
67904;SDS011;54709;43.614;1.576;2023-04-29T00:19:58;4.63;;;2.50;;
67904;SDS011;54709;43.614;1.576;2023-04-29T00:22:23;5.75;;;2.38;;
67904;SDS011;54709;43.614;1.576;2023-04-29T00:24:49;5.55;;;2.30;;
67904;SDS011;54709;43.614;1.576;2023-04-29T00:27:15;8.70;;;2.72;;
67904;SDS011;54709;43.614;1.576;2023-04-29T00:29:41;6.57;;;2.72;;
67904;SDS011;54709;43.614;1.576;2023-04-29T00:32:07;5.40;;;2.40;;
67904;SDS011;54709;43.614;1.576;2023-04-29T00:34:32;3.78;;;2.38;;
67904;SDS011;54709;43.614;1.576;2023-04-29T00:36:58;5.78;;;2.80;;
67904;SDS011;54709;43.614;1.576;2023-04-29T00:39:23;4.68;;;2.60;;
67904;SDS011;54709;43.614;1.576;2023-04-29T00:41:49;3.97;;;2.70;;
67904;SDS011;54709;43.614;1.576;2023-04-29T00:44:15;5.75;;;2.85;;
67904;SDS011;54709;43.614;1.576;2023-04-29T00:46:41;6.93;;;2.90;;
67904;SDS011;54709;43.614;1.576;2023-04-29T00:49:06;5.97;;;2.70;;
67904;SDS011;54709;43.614;1.576;2023-04-29T00:51:32;3.40;;;2.55;;
67904;SDS011;54709;43.614;1.576;2023-04-29T00:53:58;7.03;;;2.80;;
67904;SDS011;54709;43.614;1.576;2023-04-29T00:56:23;5.15;;;2.70;;
67904;SDS011;54709;43.614;1.576;2023-04-29T00:58:49;6.30;;;3.05;;
67904;SDS011;54709;43.614;1.576;2023-04-29T01:01:16;6.90;;;3.10;;
67904;SDS011;54709;43.614;1.576;2023-04-29T01:03:42;7.95;;;2.85;;
67904;SDS011;54709;43.614;1.576;2023-04-29T01:11:22;4.20;;;2.72;;
67904;SDS011;54709;43.614;1.576;2023-04-29T01:13:58;8.02;;;2.70;;
67904;SDS011;54709;43.614;1.576;2023-04-29T01:16:37;7.70;;;3.00;;
67904;SDS011;54709;43.614;1.576;2023-04-29T01:19:18;6.07;;;2.60;;
67904;SDS011;54709;43.614;1.576;2023-04-29T01:21:46;7.57;;;2.70;;
67904;SDS011;54709;43.614;1.576;2023-04-29T01:24:13;9.25;;;3.30;;
67904;SDS011;54709;43.614;1.576;2023-04-29T01:26:39;6.28;;;2.53;;
67904;SDS011;54709;43.614;1.576;2023-04-29T01:29:21;4.40;;;2.83;;
67904;SDS011;54709;43.614;1.576;2023-04-29T01:31:57;5.90;;;3.25;;
67904;SDS011;54709;43.614;1.576;2023-04-29T01:34:28;6.53;;;2.90;;
67904;SDS011;54709;43.614;1.576;2023-04-29T01:42:35;6.30;;;2.95;;
67904;SDS011;54709;43.614;1.576;2023-04-29T01:45:05;7.18;;;3.50;;
67904;SDS011;54709;43.614;1.576;2023-04-29T01:47:32;7.63;;;3.50;;
67904;SDS011;54709;43.614;1.576;2023-04-29T01:49:58;5.47;;;3.40;;
67904;SDS011;54709;43.614;1.576;2023-04-29T01:52:23;7.47;;;3.08;;
67904;SDS011;54709;43.614;1.576;2023-04-29T01:54:49;6.85;;;3.20;;
67904;SDS011;54709;43.614;1.576;2023-04-29T01:57:14;9.35;;;3.47;;
67904;SDS011;54709;43.614;1.576;2023-04-29T01:59:40;4.57;;;2.90;;
67904;SDS011;54709;43.614;1.576;2023-04-29T02:02:06;6.55;;;3.15;;
67904;SDS011;54709;43.614;1.576;2023-04-29T02:04:31;4.88;;;3.50;;
67904;SDS011;54709;43.614;1.576;2023-04-29T02:06:58;8.88;;;3.20;;
67904;SDS011;54709;43.614;1.576;2023-04-29T02:09:23;7.60;;;3.30;;
67904;SDS011;54709;43.614;1.576;2023-04-29T02:11:49;7.38;;;3.30;;
67904;SDS011;54709;43.614;1.576;2023-04-29T02:14:14;7.70;;;3.33;;
67904;SDS011;54709;43.614;1.576;2023-04-29T02:16:42;7.35;;;3.35;;
67904;SDS011;54709;43.614;1.576;2023-04-29T02:19:08;6.50;;;3.38;;
67904;SDS011;54709;43.614;1.576;2023-04-29T02:21:34;6.32;;;3.42;;
67904;SDS011;54709;43.614;1.576;2023-04-29T02:23:59;8.35;;;3.33;;
67904;SDS011;54709;43.614;1.576;2023-04-29T02:26:25;7.03;;;3.35;;
67904;SDS011;54709;43.614;1.576;2023-04-29T02:28:50;7.72;;;3.50;;
67904;SDS011;54709;43.614;1.576;2023-04-29T02:31:16;7.38;;;3.50;;
67904;SDS011;54709;43.614;1.576;2023-04-29T02:33:41;7.20;;;3.78;;
67904;SDS011;54709;43.614;1.576;2023-04-29T02:36:07;8.25;;;3.70;;
67904;SDS011;54709;43.614;1.576;2023-04-29T02:38:33;11.45;;;3.92;;
67904;SDS011;54709;43.614;1.576;2023-04-29T02:40:58;8.55;;;3.60;;
67904;SDS011;54709;43.614;1.576;2023-04-29T02:43:23;8.32;;;3.70;;
67904;SDS011;54709;43.614;1.576;2023-04-29T02:45:49;8.10;;;3.95;;
67904;SDS011;54709;43.614;1.576;2023-04-29T02:48:14;6.93;;;4.07;;
67904;SDS011;54709;43.614;1.576;2023-04-29T02:50:40;8.98;;;4.30;;
67904;SDS011;54709;43.614;1.576;2023-04-29T02:53:05;8.02;;;3.55;;
67904;SDS011;54709;43.614;1.576;2023-04-29T02:55:31;5.78;;;3.28;;
67904;SDS011;54709;43.614;1.576;2023-04-29T02:57:56;4.13;;;3.17;;
67904;SDS011;54709;43.614;1.576;2023-04-29T03:00:22;6.80;;;4.25;;
67904;SDS011;54709;43.614;1.576;2023-04-29T03:02:48;8.68;;;3.97;;
67904;SDS011;54709;43.614;1.576;2023-04-29T03:05:13;9.25;;;3.90;;
67904;SDS011;54709;43.614;1.576;2023-04-29T03:07:39;5.47;;;3.92;;
67904;SDS011;54709;43.614;1.576;2023-04-29T03:10:05;9.07;;;4.20;;
67904;SDS011;54709;43.614;1.576;2023-04-29T03:12:30;8.65;;;3.72;;
67904;SDS011;54709;43.614;1.576;2023-04-29T03:14:56;6.07;;;3.65;;
67904;SDS011;54709;43.614;1.576;2023-04-29T03:17:21;8.73;;;3.70;;
67904;SDS011;54709;43.614;1.576;2023-04-29T03:19:46;7.13;;;4.20;;
67904;SDS011;54709;43.614;1.576;2023-04-29T03:22:12;7.28;;;3.58;;
67904;SDS011;54709;43.614;1.576;2023-04-29T03:24:37;8.90;;;4.18;;
67904;SDS011;54709;43.614;1.576;2023-04-29T03:27:03;7.70;;;4.35;;
67904;SDS011;54709;43.614;1.576;2023-04-29T03:29:29;9.43;;;4.47;;
67904;SDS011;54709;43.614;1.576;2023-04-29T03:31:55;9.43;;;3.97;;
67904;SDS011;54709;43.614;1.576;2023-04-29T03:34:21;8.38;;;4.18;;
67904;SDS011;54709;43.614;1.576;2023-04-29T03:36:47;7.15;;;4.03;;
67904;SDS011;54709;43.614;1.576;2023-04-29T03:39:12;10.15;;;4.43;;
67904;SDS011;54709;43.614;1.576;2023-04-29T03:41:37;9.73;;;4.07;;
67904;SDS011;54709;43.614;1.576;2023-04-29T03:44:03;7.45;;;4.03;;
67904;SDS011;54709;43.614;1.576;2023-04-29T03:46:29;7.60;;;4.20;;
67904;SDS011;54709;43.614;1.576;2023-04-29T03:48:55;8.20;;;4.55;;
67904;SDS011;54709;43.614;1.576;2023-04-29T03:51:23;8.32;;;4.00;;
67904;SDS011;54709;43.614;1.576;2023-04-29T03:53:49;6.03;;;3.50;;
67904;SDS011;54709;43.614;1.576;2023-04-29T03:56:15;5.72;;;3.47;;
67904;SDS011;54709;43.614;1.576;2023-04-29T03:58:41;7.75;;;3.63;;
67904;SDS011;54709;43.614;1.576;2023-04-29T04:01:06;7.78;;;4.15;;
67904;SDS011;54709;43.614;1.576;2023-04-29T04:03:32;7.00;;;3.67;;
67904;SDS011;54709;43.614;1.576;2023-04-29T04:05:57;9.65;;;4.10;;
67904;SDS011;54709;43.614;1.576;2023-04-29T04:08:23;7.30;;;4.30;;
67904;SDS011;54709;43.614;1.576;2023-04-29T04:10:48;12.45;;;4.50;;
67904;SDS011;54709;43.614;1.576;2023-04-29T04:13:14;11.98;;;4.60;;
67904;SDS011;54709;43.614;1.576;2023-04-29T04:15:39;10.40;;;4.43;;
67904;SDS011;54709;43.614;1.576;2023-04-29T04:18:06;9.07;;;4.40;;
67904;SDS011;54709;43.614;1.576;2023-04-29T04:20:31;6.90;;;3.78;;
67904;SDS011;54709;43.614;1.576;2023-04-29T04:22:57;9.88;;;4.13;;
67904;SDS011;54709;43.614;1.576;2023-04-29T04:25:22;9.15;;;4.38;;
67904;SDS011;54709;43.614;1.576;2023-04-29T04:27:48;10.55;;;4.15;;
67904;SDS011;54709;43.614;1.576;2023-04-29T04:30:13;9.45;;;4.47;;
67904;SDS011;54709;43.614;1.576;2023-04-29T04:32:38;8.55;;;4.78;;
67904;SDS011;54709;43.614;1.576;2023-04-29T04:35:05;12.45;;;5.22;;
67904;SDS011;54709;43.614;1.576;2023-04-29T04:37:32;9.52;;;5.28;;
67904;SDS011;54709;43.614;1.576;2023-04-29T04:39:57;11.00;;;5.85;;
67904;SDS011;54709;43.614;1.576;2023-04-29T04:42:23;14.32;;;4.95;;
67904;SDS011;54709;43.614;1.576;2023-04-29T04:44:48;12.27;;;5.35;;
67904;SDS011;54709;43.614;1.576;2023-04-29T04:47:13;9.45;;;5.38;;
67904;SDS011;54709;43.614;1.576;2023-04-29T04:49:39;10.50;;;5.43;;
67904;SDS011;54709;43.614;1.576;2023-04-29T04:52:04;9.85;;;5.45;;
67904;SDS011;54709;43.614;1.576;2023-04-29T04:54:29;12.18;;;5.28;;
67904;SDS011;54709;43.614;1.576;2023-04-29T04:56:55;11.68;;;5.70;;
67904;SDS011;54709;43.614;1.576;2023-04-29T04:59:21;10.73;;;5.88;;
67904;SDS011;54709;43.614;1.576;2023-04-29T05:01:46;14.02;;;5.63;;
67904;SDS011;54709;43.614;1.576;2023-04-29T05:04:11;10.52;;;5.88;;
67904;SDS011;54709;43.614;1.576;2023-04-29T05:06:37;15.70;;;6.07;;
67904;SDS011;54709;43.614;1.576;2023-04-29T05:09:02;13.13;;;5.75;;
67904;SDS011;54709;43.614;1.576;2023-04-29T05:11:27;16.85;;;6.50;;
67904;SDS011;54709;43.614;1.576;2023-04-29T05:13:53;15.73;;;6.57;;
67904;SDS011;54709;43.614;1.576;2023-04-29T05:16:18;13.80;;;6.10;;
67904;SDS011;54709;43.614;1.576;2023-04-29T05:18:44;16.33;;;6.25;;
67904;SDS011;54709;43.614;1.576;2023-04-29T05:21:10;11.95;;;5.40;;
67904;SDS011;54709;43.614;1.576;2023-04-29T05:23:36;16.52;;;7.03;;
67904;SDS011;54709;43.614;1.576;2023-04-29T05:26:02;18.23;;;5.82;;
67904;SDS011;54709;43.614;1.576;2023-04-29T05:28:27;12.90;;;6.13;;
67904;SDS011;54709;43.614;1.576;2023-04-29T05:30:53;12.55;;;6.20;;
67904;SDS011;54709;43.614;1.576;2023-04-29T05:33:18;12.50;;;5.82;;
67904;SDS011;54709;43.614;1.576;2023-04-29T05:35:44;9.82;;;6.25;;
67904;SDS011;54709;43.614;1.576;2023-04-29T05:38:10;11.77;;;6.57;;
67904;SDS011;54709;43.614;1.576;2023-04-29T05:40:35;8.90;;;6.63;;
67904;SDS011;54709;43.614;1.576;2023-04-29T05:43:00;11.50;;;6.82;;
67904;SDS011;54709;43.614;1.576;2023-04-29T05:45:26;11.20;;;6.30;;
67904;SDS011;54709;43.614;1.576;2023-04-29T05:47:51;11.82;;;6.50;;
67904;SDS011;54709;43.614;1.576;2023-04-29T05:50:17;8.85;;;6.07;;
67904;SDS011;54709;43.614;1.576;2023-04-29T05:52:42;11.70;;;6.28;;
67904;SDS011;54709;43.614;1.576;2023-04-29T05:55:08;8.82;;;6.80;;
67904;SDS011;54709;43.614;1.576;2023-04-29T05:57:33;11.10;;;7.43;;
67904;SDS011;54709;43.614;1.576;2023-04-29T05:59:59;11.25;;;7.40;;
67904;SDS011;54709;43.614;1.576;2023-04-29T06:02:25;16.08;;;7.85;;
67904;SDS011;54709;43.614;1.576;2023-04-29T06:04:51;12.20;;;7.18;;
67904;SDS011;54709;43.614;1.576;2023-04-29T06:07:16;8.38;;;7.30;;
67904;SDS011;54709;43.614;1.576;2023-04-29T06:09:42;13.18;;;7.13;;
67904;SDS011;54709;43.614;1.576;2023-04-29T06:12:08;12.15;;;7.78;;
67904;SDS011;54709;43.614;1.576;2023-04-29T06:14:34;11.32;;;6.97;;
67904;SDS011;54709;43.614;1.576;2023-04-29T06:16:59;9.95;;;7.10;;
67904;SDS011;54709;43.614;1.576;2023-04-29T06:19:24;7.88;;;6.57;;
67904;SDS011;54709;43.614;1.576;2023-04-29T06:21:50;9.90;;;7.03;;
67904;SDS011;54709;43.614;1.576;2023-04-29T06:24:15;7.47;;;6.43;;
67904;SDS011;54709;43.614;1.576;2023-04-29T06:26:41;12.27;;;7.60;;
67904;SDS011;54709;43.614;1.576;2023-04-29T06:29:06;7.93;;;6.55;;
67904;SDS011;54709;43.614;1.576;2023-04-29T06:31:31;9.68;;;6.47;;
67904;SDS011;54709;43.614;1.576;2023-04-29T06:33:57;7.80;;;6.72;;
67904;SDS011;54709;43.614;1.576;2023-04-29T06:36:22;9.75;;;6.65;;
67904;SDS011;54709;43.614;1.576;2023-04-29T06:38:48;8.95;;;6.15;;
67904;SDS011;54709;43.614;1.576;2023-04-29T06:41:13;9.75;;;6.57;;
67904;SDS011;54709;43.614;1.576;2023-04-29T06:43:38;10.48;;;7.18;;
67904;SDS011;54709;43.614;1.576;2023-04-29T06:46:04;11.75;;;6.80;;
67904;SDS011;54709;43.614;1.576;2023-04-29T06:48:30;10.00;;;6.93;;
67904;SDS011;54709;43.614;1.576;2023-04-29T06:50:56;12.10;;;7.72;;
67904;SDS011;54709;43.614;1.576;2023-04-29T06:53:22;11.32;;;7.32;;
67904;SDS011;54709;43.614;1.576;2023-04-29T06:55:48;13.55;;;8.15;;
67904;SDS011;54709;43.614;1.576;2023-04-29T06:58:14;10.32;;;6.78;;
67904;SDS011;54709;43.614;1.576;2023-04-29T07:00:42;10.60;;;7.28;;
67904;SDS011;54709;43.614;1.576;2023-04-29T07:03:08;12.77;;;7.72;;
67904;SDS011;54709;43.614;1.576;2023-04-29T07:05:35;13.85;;;7.57;;
67904;SDS011;54709;43.614;1.576;2023-04-29T07:08:00;10.48;;;7.60;;
67904;SDS011;54709;43.614;1.576;2023-04-29T07:10:26;9.77;;;7.20;;
67904;SDS011;54709;43.614;1.576;2023-04-29T07:12:52;12.88;;;9.10;;
67904;SDS011;54709;43.614;1.576;2023-04-29T07:15:17;14.55;;;9.10;;
67904;SDS011;54709;43.614;1.576;2023-04-29T07:17:43;12.63;;;8.95;;
67904;SDS011;54709;43.614;1.576;2023-04-29T07:20:08;12.30;;;8.93;;
67904;SDS011;54709;43.614;1.576;2023-04-29T07:22:34;13.98;;;9.80;;
67904;SDS011;54709;43.614;1.576;2023-04-29T07:24:59;13.23;;;10.02;;
67904;SDS011;54709;43.614;1.576;2023-04-29T07:27:25;15.10;;;10.43;;
67904;SDS011;54709;43.614;1.576;2023-04-29T07:29:51;17.48;;;11.00;;
67904;SDS011;54709;43.614;1.576;2023-04-29T07:32:16;29.73;;;11.93;;
67904;SDS011;54709;43.614;1.576;2023-04-29T07:34:42;36.00;;;15.30;;
67904;SDS011;54709;43.614;1.576;2023-04-29T07:37:07;32.10;;;16.70;;
67904;SDS011;54709;43.614;1.576;2023-04-29T07:39:33;22.85;;;15.45;;
67904;SDS011;54709;43.614;1.576;2023-04-29T07:41:59;25.45;;;15.15;;
67904;SDS011;54709;43.614;1.576;2023-04-29T07:44:25;24.15;;;14.88;;
67904;SDS011;54709;43.614;1.576;2023-04-29T07:46:50;26.67;;;16.83;;
67904;SDS011;54709;43.614;1.576;2023-04-29T07:49:16;27.15;;;16.45;;
67904;SDS011;54709;43.614;1.576;2023-04-29T07:51:41;27.05;;;17.48;;
67904;SDS011;54709;43.614;1.576;2023-04-29T07:54:07;32.83;;;17.80;;
67904;SDS011;54709;43.614;1.576;2023-04-29T07:56:33;28.02;;;17.20;;
67904;SDS011;54709;43.614;1.576;2023-04-29T07:58:59;22.92;;;15.07;;
67904;SDS011;54709;43.614;1.576;2023-04-29T08:01:25;22.67;;;15.43;;
67904;SDS011;54709;43.614;1.576;2023-04-29T08:03:50;20.52;;;13.70;;
67904;SDS011;54709;43.614;1.576;2023-04-29T08:06:16;24.65;;;16.15;;
67904;SDS011;54709;43.614;1.576;2023-04-29T08:08:44;20.73;;;14.70;;
67904;SDS011;54709;43.614;1.576;2023-04-29T08:11:16;22.60;;;15.05;;
67904;SDS011;54709;43.614;1.576;2023-04-29T08:13:42;17.50;;;13.45;;
67904;SDS011;54709;43.614;1.576;2023-04-29T08:16:08;17.88;;;13.90;;
67904;SDS011;54709;43.614;1.576;2023-04-29T08:18:34;19.30;;;12.85;;
67904;SDS011;54709;43.614;1.576;2023-04-29T08:21:00;15.65;;;13.20;;
67904;SDS011;54709;43.614;1.576;2023-04-29T08:23:26;17.83;;;14.20;;
67904;SDS011;54709;43.614;1.576;2023-04-29T08:25:51;20.95;;;14.55;;
67904;SDS011;54709;43.614;1.576;2023-04-29T08:28:19;18.25;;;13.52;;
67904;SDS011;54709;43.614;1.576;2023-04-29T08:30:44;21.75;;;13.95;;
67904;SDS011;54709;43.614;1.576;2023-04-29T08:33:10;19.25;;;14.55;;
67904;SDS011;54709;43.614;1.576;2023-04-29T08:35:36;19.58;;;15.77;;
67904;SDS011;54709;43.614;1.576;2023-04-29T08:38:03;18.52;;;14.90;;
67904;SDS011;54709;43.614;1.576;2023-04-29T08:40:29;19.08;;;13.55;;
67904;SDS011;54709;43.614;1.576;2023-04-29T08:42:55;19.92;;;14.88;;
67904;SDS011;54709;43.614;1.576;2023-04-29T08:45:22;20.92;;;14.95;;
67904;SDS011;54709;43.614;1.576;2023-04-29T08:47:49;18.23;;;14.30;;
67904;SDS011;54709;43.614;1.576;2023-04-29T08:50:15;17.88;;;13.27;;
67904;SDS011;54709;43.614;1.576;2023-04-29T08:52:41;16.60;;;12.95;;
67904;SDS011;54709;43.614;1.576;2023-04-29T08:55:07;18.38;;;13.20;;
67904;SDS011;54709;43.614;1.576;2023-04-29T08:57:34;17.45;;;13.18;;
67904;SDS011;54709;43.614;1.576;2023-04-29T09:00:03;17.75;;;14.15;;
67904;SDS011;54709;43.614;1.576;2023-04-29T09:02:31;17.15;;;13.35;;
67904;SDS011;54709;43.614;1.576;2023-04-29T09:07:33;18.70;;;13.93;;
67904;SDS011;54709;43.614;1.576;2023-04-29T09:09:59;17.73;;;13.23;;
67904;SDS011;54709;43.614;1.576;2023-04-29T09:12:26;15.95;;;13.25;;
67904;SDS011;54709;43.614;1.576;2023-04-29T09:14:51;18.00;;;13.70;;
67904;SDS011;54709;43.614;1.576;2023-04-29T09:17:16;18.40;;;13.63;;
67904;SDS011;54709;43.614;1.576;2023-04-29T09:19:42;23.92;;;13.10;;
67904;SDS011;54709;43.614;1.576;2023-04-29T09:22:08;18.77;;;13.55;;
67904;SDS011;54709;43.614;1.576;2023-04-29T09:24:34;23.17;;;13.90;;
67904;SDS011;54709;43.614;1.576;2023-04-29T09:26:59;20.08;;;13.90;;
67904;SDS011;54709;43.614;1.576;2023-04-29T09:29:25;22.55;;;14.48;;
67904;SDS011;54709;43.614;1.576;2023-04-29T09:31:51;21.23;;;14.50;;
67904;SDS011;54709;43.614;1.576;2023-04-29T09:34:18;20.88;;;14.27;;
67904;SDS011;54709;43.614;1.576;2023-04-29T09:36:55;19.73;;;13.82;;
67904;SDS011;54709;43.614;1.576;2023-04-29T09:39:23;19.73;;;14.20;;
67904;SDS011;54709;43.614;1.576;2023-04-29T09:44:18;18.25;;;13.82;;
67904;SDS011;54709;43.614;1.576;2023-04-29T09:46:53;19.58;;;13.38;;
67904;SDS011;54709;43.614;1.576;2023-04-29T09:49:23;18.27;;;13.77;;
67904;SDS011;54709;43.614;1.576;2023-04-29T09:51:54;21.40;;;14.70;;
67904;SDS011;54709;43.614;1.576;2023-04-29T09:54:24;17.70;;;13.55;;
67904;SDS011;54709;43.614;1.576;2023-04-29T09:59:18;17.70;;;12.48;;
67904;SDS011;54709;43.614;1.576;2023-04-29T10:01:45;14.70;;;12.00;;
67904;SDS011;54709;43.614;1.576;2023-04-29T10:04:23;13.02;;;10.50;;
67904;SDS011;54709;43.614;1.576;2023-04-29T10:06:50;13.60;;;9.98;;
67904;SDS011;54709;43.614;1.576;2023-04-29T10:09:16;11.73;;;10.18;;
67904;SDS011;54709;43.614;1.576;2023-04-29T10:11:43;13.60;;;10.15;;
67904;SDS011;54709;43.614;1.576;2023-04-29T10:14:11;12.05;;;10.50;;
67904;SDS011;54709;43.614;1.576;2023-04-29T10:16:39;32.63;;;10.20;;
67904;SDS011;54709;43.614;1.576;2023-04-29T10:19:11;11.65;;;9.40;;
67904;SDS011;54709;43.614;1.576;2023-04-29T10:21:40;10.90;;;9.75;;
67904;SDS011;54709;43.614;1.576;2023-04-29T10:24:05;10.15;;;9.10;;
67904;SDS011;54709;43.614;1.576;2023-04-29T10:26:32;10.40;;;9.27;;
67904;SDS011;54709;43.614;1.576;2023-04-29T10:28:58;11.38;;;9.25;;
67904;SDS011;54709;43.614;1.576;2023-04-29T10:31:25;16.20;;;10.05;;
67904;SDS011;54709;43.614;1.576;2023-04-29T10:33:52;10.15;;;8.52;;
67904;SDS011;54709;43.614;1.576;2023-04-29T10:36:20;9.98;;;8.52;;
67904;SDS011;54709;43.614;1.576;2023-04-29T10:38:47;9.93;;;8.38;;
67904;SDS011;54709;43.614;1.576;2023-04-29T10:41:18;10.77;;;7.05;;
67904;SDS011;54709;43.614;1.576;2023-04-29T10:43:45;7.75;;;6.90;;
67904;SDS011;54709;43.614;1.576;2023-04-29T10:46:17;10.05;;;6.88;;
67904;SDS011;54709;43.614;1.576;2023-04-29T10:48:48;9.32;;;6.90;;
67904;SDS011;54709;43.614;1.576;2023-04-29T10:51:27;9.88;;;6.88;;
67904;SDS011;54709;43.614;1.576;2023-04-29T10:53:57;7.65;;;6.35;;
67904;SDS011;54709;43.614;1.576;2023-04-29T10:56:35;7.57;;;6.45;;
67904;SDS011;54709;43.614;1.576;2023-04-29T10:59:02;8.70;;;6.82;;
67904;SDS011;54709;43.614;1.576;2023-04-29T11:01:44;7.55;;;6.82;;
67904;SDS011;54709;43.614;1.576;2023-04-29T11:04:11;9.35;;;6.95;;
67904;SDS011;54709;43.614;1.576;2023-04-29T11:06:37;7.75;;;6.78;;
67904;SDS011;54709;43.614;1.576;2023-04-29T11:09:08;8.60;;;6.38;;
67904;SDS011;54709;43.614;1.576;2023-04-29T11:14:11;7.45;;;5.72;;
67904;SDS011;54709;43.614;1.576;2023-04-29T11:16:37;7.38;;;5.57;;
67904;SDS011;54709;43.614;1.576;2023-04-29T11:19:03;6.53;;;5.28;;
67904;SDS011;54709;43.614;1.576;2023-04-29T11:21:36;6.22;;;5.63;;
67904;SDS011;54709;43.614;1.576;2023-04-29T11:24:04;7.25;;;5.80;;
67904;SDS011;54709;43.614;1.576;2023-04-29T11:26:33;9.02;;;5.85;;
67904;SDS011;54709;43.614;1.576;2023-04-29T11:28:59;8.07;;;5.47;;
67904;SDS011;54709;43.614;1.576;2023-04-29T11:31:34;8.25;;;5.72;;
67904;SDS011;54709;43.614;1.576;2023-04-29T11:33:59;8.38;;;6.18;;
67904;SDS011;54709;43.614;1.576;2023-04-29T11:36:25;8.48;;;6.80;;
67904;SDS011;54709;43.614;1.576;2023-04-29T11:38:51;8.98;;;7.03;;
67904;SDS011;54709;43.614;1.576;2023-04-29T11:41:17;9.10;;;7.30;;
67904;SDS011;54709;43.614;1.576;2023-04-29T11:43:44;10.63;;;7.40;;
67904;SDS011;54709;43.614;1.576;2023-04-29T11:46:14;8.18;;;6.68;;
67904;SDS011;54709;43.614;1.576;2023-04-29T11:48:46;12.48;;;6.22;;
67904;SDS011;54709;43.614;1.576;2023-04-29T11:51:13;8.73;;;6.20;;
67904;SDS011;54709;43.614;1.576;2023-04-29T11:53:42;8.35;;;6.93;;
67904;SDS011;54709;43.614;1.576;2023-04-29T11:56:08;10.27;;;6.97;;
67904;SDS011;54709;43.614;1.576;2023-04-29T11:58:34;13.95;;;6.90;;
67904;SDS011;54709;43.614;1.576;2023-04-29T12:00:59;10.35;;;5.60;;
67904;SDS011;54709;43.614;1.576;2023-04-29T12:03:25;8.00;;;6.47;;
67904;SDS011;54709;43.614;1.576;2023-04-29T12:05:51;8.57;;;6.32;;
67904;SDS011;54709;43.614;1.576;2023-04-29T12:08:23;8.13;;;5.70;;
67904;SDS011;54709;43.614;1.576;2023-04-29T12:10:50;8.00;;;5.88;;
67904;SDS011;54709;43.614;1.576;2023-04-29T12:13:17;7.03;;;5.60;;
67904;SDS011;54709;43.614;1.576;2023-04-29T12:15:46;8.07;;;5.72;;
67904;SDS011;54709;43.614;1.576;2023-04-29T12:18:14;7.35;;;5.72;;
67904;SDS011;54709;43.614;1.576;2023-04-29T12:20:41;9.18;;;5.93;;
67904;SDS011;54709;43.614;1.576;2023-04-29T12:23:22;7.30;;;6.28;;
